Time;durP1;ratioP1;P1;durP2;ratioP2;P2;SDS_P1;SDS_P2;PMS_P1;PMS_P2;Temp;Humidity;BMP_temperature;BMP_pressure;BME280_temperature;BME280_humidity;BME280_pressure;Samples;Min_cycle;Max_cycle;Signal;HPM_P1;HPM_P2
2023/08/04 00:00:47;;;;;;;8.80;2.55;;;15.80;99.90;;;;;;5053482;28;20032;-54
2023/08/04 00:03:14;;;;;;;11.65;1.60;;;15.80;99.90;;;;;;5053598;28;20013;-55
2023/08/04 00:05:39;;;;;;;10.10;2.45;;;15.80;99.90;;;;;;5053409;28;20118;-53
2023/08/04 00:08:05;;;;;;;2.72;1.70;;;15.70;99.90;;;;;;5053257;28;20061;-54
2023/08/04 00:10:30;;;;;;;12.38;2.22;;;15.70;99.90;;;;;;5053216;28;20040;-54
2023/08/04 00:12:56;;;;;;;12.50;2.30;;;15.70;99.90;;;;;;5053118;28;20585;-52
2023/08/04 00:15:22;;;;;;;4.00;1.80;;;15.60;99.90;;;;;;5051141;28;20064;-54
2023/08/04 00:17:47;;;;;;;8.50;1.58;;;15.60;99.90;;;;;;5041895;28;20032;-40
2023/08/04 00:20:13;;;;;;;10.95;1.83;;;15.60;99.90;;;;;;5033010;28;20052;-40
2023/08/04 00:22:39;;;;;;;6.25;1.85;;;15.60;99.90;;;;;;5033584;28;20557;-42
2023/08/04 00:25:05;;;;;;;5.97;1.80;;;15.70;99.90;;;;;;5052983;28;20032;-40
2023/08/04 00:27:31;;;;;;;7.13;1.67;;;15.60;99.90;;;;;;5052833;28;20095;-44
2023/08/04 00:29:57;;;;;;;7.30;1.45;;;15.70;99.90;;;;;;5053024;28;20523;-42
2023/08/04 00:32:22;;;;;;;5.90;1.85;;;15.80;99.90;;;;;;5044639;28;20490;-44
2023/08/04 00:34:48;;;;;;;7.97;2.08;;;15.80;99.90;;;;;;5033005;28;20535;-43
2023/08/04 00:37:13;;;;;;;6.65;1.45;;;15.80;99.90;;;;;;5038558;28;20377;-40
2023/08/04 00:39:39;;;;;;;9.85;1.75;;;15.80;99.90;;;;;;5052843;28;20148;-41
2023/08/04 00:42:05;;;;;;;5.95;2.33;;;15.80;99.90;;;;;;5053087;28;20017;-42
2023/08/04 00:44:30;;;;;;;8.65;2.70;;;15.90;99.90;;;;;;5052553;28;20025;-42
2023/08/04 00:46:58;;;;;;;5.85;2.05;;;15.90;99.90;;;;;;5051095;28;20041;-43
2023/08/04 00:49:23;;;;;;;6.10;1.33;;;15.90;99.90;;;;;;5044130;28;20025;-41
2023/08/04 00:51:50;;;;;;;6.93;1.88;;;16.00;99.90;;;;;;5032874;28;20029;-43
2023/08/04 00:54:17;;;;;;;9.05;1.58;;;16.00;99.90;;;;;;5033001;28;20025;-45
2023/08/04 00:56:42;;;;;;;14.20;1.77;;;16.00;99.90;;;;;;5048286;28;20049;-43
2023/08/04 00:59:08;;;;;;;11.25;2.38;;;16.10;99.90;;;;;;5052666;28;20017;-39
2023/08/04 01:01:33;;;;;;;10.43;1.95;;;16.10;99.90;;;;;;5052596;28;20386;-42
2023/08/04 01:03:59;;;;;;;4.07;2.00;;;16.10;99.90;;;;;;5052104;28;20021;-39
2023/08/04 01:06:56;;;;;;;8.52;1.48;;;16.10;99.90;;;;;;5042398;28;20108;-41
2023/08/04 01:09:43;;;;;;;;;;;16.10;99.90;;;;;;5037549;28;20521;-39
2023/08/04 01:12:18;;;;;;;7.18;1.83;;;16.10;99.90;;;;;;5056994;28;19911;-41
2023/08/04 01:14:49;;;;;;;9.35;2.92;;;16.10;99.90;;;;;;5056543;28;20064;-41
2023/08/04 01:17:22;;;;;;;8.95;1.88;;;16.10;99.90;;;;;;5056533;28;20025;-43
2023/08/04 01:19:47;;;;;;;5.78;1.88;;;16.10;99.90;;;;;;5056541;28;20025;-40
2023/08/04 01:22:13;;;;;;;7.32;1.88;;;16.10;99.90;;;;;;5056744;28;20020;-40
2023/08/04 01:24:39;;;;;;;5.70;1.83;;;16.10;99.90;;;;;;5055364;28;20018;-40
2023/08/04 01:27:05;;;;;;;6.50;1.90;;;16.20;99.90;;;;;;5056423;28;20033;-40
2023/08/04 01:29:31;;;;;;;6.32;1.67;;;16.20;99.90;;;;;;5056366;28;20033;-45
2023/08/04 01:31:58;;;;;;;10.93;2.42;;;16.10;99.90;;;;;;5056638;28;20439;-41
2023/08/04 01:34:24;;;;;;;5.57;2.10;;;16.20;99.90;;;;;;5055988;28;20027;-55
2023/08/04 01:36:50;;;;;;;8.02;2.15;;;16.20;99.90;;;;;;5056292;28;20026;-53
2023/08/04 01:39:16;;;;;;;6.32;1.65;;;16.20;99.90;;;;;;5055324;28;20075;-53
2023/08/04 01:41:42;;;;;;;7.03;1.70;;;16.20;99.90;;;;;;5055137;28;20025;-53
2023/08/04 01:44:07;;;;;;;9.00;1.33;;;16.20;99.90;;;;;;5056139;28;20101;-52
2023/08/04 01:46:33;;;;;;;8.85;1.70;;;16.20;99.90;;;;;;5056032;28;20040;-54
2023/08/04 01:48:58;;;;;;;3.83;1.30;;;16.20;99.90;;;;;;5055994;28;20386;-54
2023/08/04 01:51:24;;;;;;;8.63;1.30;;;16.30;99.90;;;;;;5056003;28;20409;-54
2023/08/04 01:53:50;;;;;;;6.30;1.95;;;16.20;99.90;;;;;;5055804;28;20039;-52
2023/08/04 01:56:15;;;;;;;10.18;1.63;;;16.10;99.90;;;;;;5055653;28;20041;-55
2023/08/04 01:58:41;;;;;;;14.38;2.20;;;16.00;99.90;;;;;;5055266;28;20108;-55
2023/08/04 02:01:06;;;;;;;9.60;2.00;;;16.00;99.90;;;;;;5055828;28;20025;-54
2023/08/04 02:03:34;;;;;;;8.55;1.38;;;16.00;99.90;;;;;;5055734;28;20465;-54
2023/08/04 02:06:00;;;;;;;;;;;16.10;99.90;;;;;;5056413;28;20029;-53
2023/08/04 02:08:25;;;;;;;2.63;1.40;;;16.10;99.90;;;;;;5055671;28;19916;-54
2023/08/04 02:10:51;;;;;;;10.13;1.95;;;16.10;99.90;;;;;;5038937;28;20033;-54
2023/08/04 02:13:17;;;;;;;5.32;1.83;;;16.10;99.90;;;;;;5034356;28;20025;-54
2023/08/04 02:15:42;;;;;;;6.65;1.70;;;16.10;99.90;;;;;;5042619;28;20031;-39
2023/08/04 02:18:08;;;;;;;6.97;1.58;;;16.10;99.90;;;;;;5055426;28;20048;-43
2023/08/04 02:20:34;;;;;;;4.57;1.20;;;16.10;99.90;;;;;;5054878;28;20025;-43
2023/08/04 02:23:00;;;;;;;6.57;1.35;;;16.00;99.90;;;;;;5055389;28;20021;-43
2023/08/04 02:25:26;;;;;;;10.80;2.50;;;16.00;99.90;;;;;;5055250;28;20029;-42
2023/08/04 02:27:51;;;;;;;6.38;2.30;;;16.10;99.90;;;;;;5055326;28;20036;-40
2023/08/04 02:30:17;;;;;;;1.75;1.48;;;16.10;99.90;;;;;;5054963;28;20036;-40
2023/08/04 02:32:42;;;;;;;5.75;1.92;;;16.10;99.90;;;;;;5054468;28;20504;-40
2023/08/04 02:35:08;;;;;;;4.82;1.85;;;16.10;99.90;;;;;;5054817;28;20032;-40
2023/08/04 02:37:34;;;;;;;5.97;2.03;;;16.20;99.90;;;;;;5055068;28;20029;-55
2023/08/04 02:40:00;;;;;;;7.38;1.60;;;16.10;99.90;;;;;;5054802;28;20040;-55
2023/08/04 02:42:25;;;;;;;5.68;1.48;;;16.20;99.90;;;;;;5054998;28;20489;-54
2023/08/04 02:44:54;;;;;;;3.92;1.80;;;16.20;99.90;;;;;;5054958;28;20128;-41
2023/08/04 02:47:20;;;;;;;12.13;2.10;;;16.20;99.90;;;;;;5054648;28;20036;-40
2023/08/04 02:49:46;;;;;;;9.38;1.98;;;16.30;99.90;;;;;;5054567;28;20029;-54
2023/08/04 02:52:14;;;;;;;3.45;1.67;;;16.30;99.90;;;;;;5061843;28;20143;-55
2023/08/04 02:54:40;;;;;;;5.45;2.00;;;16.30;99.90;;;;;;5071570;28;20085;-55
2023/08/04 02:57:06;;;;;;;6.65;1.10;;;16.30;99.90;;;;;;5067054;28;20041;-55
2023/08/04 02:59:32;;;;;;;6.78;1.50;;;16.30;99.90;;;;;;5070351;28;20036;-54
2023/08/04 03:01:57;;;;;;;6.45;1.70;;;16.30;99.90;;;;;;5074675;28;20034;-54
2023/08/04 03:04:23;;;;;;;3.65;1.73;;;16.30;99.90;;;;;;5063962;28;20107;-54
2023/08/04 03:06:49;;;;;;;2.92;1.77;;;16.30;99.90;;;;;;5074563;28;20028;-55
2023/08/04 03:09:14;;;;;;;10.38;2.28;;;16.30;99.90;;;;;;5069909;28;20120;-45
2023/08/04 03:11:40;;;;;;;4.30;1.90;;;16.40;99.90;;;;;;5071762;28;20031;-44
2023/08/04 03:14:06;;;;;;;9.32;1.83;;;16.40;99.90;;;;;;5074318;28;20540;-44
2023/08/04 03:16:31;;;;;;;3.72;2.10;;;16.30;99.90;;;;;;5063640;28;20028;-43
2023/08/04 03:18:57;;;;;;;10.60;2.42;;;16.30;99.90;;;;;;5052757;28;20390;-41
2023/08/04 03:21:22;;;;;;;4.68;1.73;;;16.40;99.90;;;;;;5071858;28;20020;-41
2023/08/04 03:23:48;;;;;;;4.55;2.40;;;16.30;99.90;;;;;;5074123;28;20031;-40
2023/08/04 03:26:13;;;;;;;4.40;1.98;;;16.40;99.90;;;;;;5074427;28;20504;-40
2023/08/04 03:28:39;;;;;;;2.53;1.98;;;16.40;99.90;;;;;;5063898;28;20025;-54
2023/08/04 03:31:05;;;;;;;8.82;2.17;;;16.40;99.90;;;;;;5042790;28;20039;-55
2023/08/04 03:33:31;;;;;;;7.57;2.00;;;16.30;99.90;;;;;;5053116;28;20386;-55
2023/08/04 03:35:56;;;;;;;4.55;1.80;;;16.30;99.90;;;;;;5054154;28;20028;-54
2023/08/04 03:38:22;;;;;;;6.53;1.90;;;16.30;99.90;;;;;;5054138;28;20112;-52
2023/08/04 03:40:48;;;;;;;8.32;2.65;;;16.30;99.90;;;;;;5053882;28;20112;-54
2023/08/04 03:43:13;;;;;;;10.52;2.10;;;16.40;99.90;;;;;;5053808;28;20394;-52
2023/08/04 03:45:39;;;;;;;6.80;2.30;;;16.40;99.90;;;;;;5067612;28;20021;-55
2023/08/04 03:48:05;;;;;;;7.82;1.88;;;16.40;99.90;;;;;;5069365;28;20447;-52
2023/08/04 03:50:31;;;;;;;6.30;1.85;;;16.40;99.90;;;;;;5070685;28;20055;-55
2023/08/04 03:52:56;;;;;;;4.85;2.08;;;16.40;99.90;;;;;;5073572;28;20074;-52
2023/08/04 03:55:22;;;;;;;3.40;1.60;;;16.40;99.90;;;;;;5070189;28;20112;-54
2023/08/04 03:57:47;;;;;;;7.15;3.03;;;16.40;99.90;;;;;;5073341;28;20489;-55
2023/08/04 04:00:13;;;;;;;5.45;2.17;;;16.40;99.90;;;;;;5070778;28;20024;-52
2023/08/04 04:02:39;;;;;;;9.07;1.98;;;16.40;99.90;;;;;;5073404;28;20029;-52
2023/08/04 04:05:05;;;;;;;4.28;1.77;;;16.40;99.90;;;;;;5068673;28;20074;-44
2023/08/04 04:07:30;;;;;;;6.07;2.38;;;16.40;99.90;;;;;;5073337;28;20029;-45
2023/08/04 04:09:56;;;;;;;1.67;1.33;;;16.40;99.90;;;;;;5064421;28;20036;-44
2023/08/04 04:12:21;;;;;;;3.20;2.05;;;16.40;99.90;;;;;;5065044;28;20134;-46
2023/08/04 04:14:47;;;;;;;6.70;2.03;;;16.40;99.90;;;;;;5069456;28;20090;-41
2023/08/04 04:17:13;;;;;;;6.38;2.65;;;16.50;99.90;;;;;;5071190;28;20140;-42
2023/08/04 04:19:38;;;;;;;2.92;1.65;;;16.50;99.90;;;;;;5057400;28;20054;-40
2023/08/04 04:22:04;;;;;;;4.70;1.92;;;16.40;99.90;;;;;;5043534;28;20032;-40
2023/08/04 04:24:30;;;;;;;4.07;2.38;;;16.40;99.90;;;;;;5053081;28;20024;-42
2023/08/04 04:26:55;;;;;;;11.45;2.65;;;16.50;99.90;;;;;;5053267;28;20440;-41
2023/08/04 04:29:21;;;;;;;6.68;2.45;;;16.50;99.90;;;;;;5053273;28;20063;-39
2023/08/04 04:31:47;;;;;;;5.97;2.22;;;16.50;99.90;;;;;;5073278;28;20375;-42
2023/08/04 04:34:12;;;;;;;4.03;2.00;;;16.50;99.90;;;;;;5057344;28;20044;-43
2023/08/04 04:36:38;;;;;;;7.15;2.10;;;16.50;99.90;;;;;;5045516;28;20029;-54
2023/08/04 04:39:04;;;;;;;7.50;2.80;;;16.50;99.90;;;;;;5052875;28;20114;-53
2023/08/04 04:41:29;;;;;;;3.58;2.30;;;16.50;99.90;;;;;;5052988;28;20083;-55
2023/08/04 04:43:56;;;;;;;5.70;2.70;;;16.50;99.90;;;;;;5052618;28;20104;-55
2023/08/04 04:46:22;;;;;;;2.33;2.00;;;16.50;99.90;;;;;;5052955;28;20094;-53
2023/08/04 04:48:47;;;;;;;7.70;2.85;;;16.50;99.90;;;;;;5052409;28;20033;-54
2023/08/04 04:51:13;;;;;;;4.15;1.80;;;16.50;99.90;;;;;;5052700;28;20024;-54
2023/08/04 04:53:39;;;;;;;5.88;2.35;;;16.50;99.90;;;;;;5064458;28;20033;-55
2023/08/04 04:56:05;;;;;;;4.47;2.10;;;16.50;99.90;;;;;;5072499;28;20040;-55
2023/08/04 04:58:31;;;;;;;5.45;2.50;;;16.50;99.90;;;;;;5072808;28;20048;-40
2023/08/04 05:01:04;;;;;;;12.52;2.88;;;16.50;99.90;;;;;;5072946;28;20474;-41
2023/08/04 05:03:30;;;;;;;4.07;2.30;;;16.50;99.90;;;;;;5060604;28;20029;-39
2023/08/04 05:05:55;;;;;;;5.88;2.40;;;16.50;99.90;;;;;;5072653;28;20028;-42
2023/08/04 05:08:21;;;;;;;2.88;2.05;;;16.60;99.90;;;;;;5068641;28;20385;-42
2023/08/04 05:10:51;;;;;;;3.47;2.20;;;16.60;99.90;;;;;;5067772;28;20032;-42
2023/08/04 05:13:16;;;;;;;5.80;2.33;;;16.60;99.90;;;;;;5072718;28;20025;-42
2023/08/04 05:15:42;;;;;;;2.28;2.08;;;16.60;99.90;;;;;;5072564;28;20065;-41
2023/08/04 05:18:08;;;;;;;6.95;2.15;;;16.60;99.90;;;;;;5067550;28;20025;-41
2023/08/04 05:20:33;;;;;;;5.47;2.17;;;16.60;99.90;;;;;;5038753;28;20021;-44
2023/08/04 05:22:59;;;;;;;3.92;2.47;;;16.70;99.90;;;;;;5052691;28;20431;-41
2023/08/04 05:25:24;;;;;;;10.70;2.58;;;16.70;99.90;;;;;;5052245;28;20021;-39
2023/08/04 05:27:50;;;;;;;8.15;1.88;;;16.70;99.90;;;;;;5055465;28;20090;-43
2023/08/04 05:30:16;;;;;;;5.38;2.17;;;16.70;99.90;;;;;;5067286;28;20040;-41
2023/08/04 05:32:41;;;;;;;4.18;2.22;;;16.70;99.90;;;;;;5072671;28;20485;-41
2023/08/04 05:35:09;;;;;;;5.63;2.97;;;16.80;99.90;;;;;;5057748;28;20036;-40
2023/08/04 05:37:35;;;;;;;5.63;2.47;;;16.80;99.90;;;;;;5041334;28;20024;-43
2023/08/04 05:40:01;;;;;;;7.53;2.58;;;16.90;99.90;;;;;;5052280;28;20427;-41
2023/08/04 05:42:27;;;;;;;3.60;1.75;;;16.90;99.90;;;;;;5052158;28;20033;-41
2023/08/04 05:44:52;;;;;;;5.28;2.20;;;16.90;99.90;;;;;;5052530;28;20444;-41
2023/08/04 05:47:19;;;;;;;7.80;2.10;;;16.90;99.90;;;;;;5052222;28;20029;-40
2023/08/04 05:49:47;;;;;;;8.60;2.20;;;16.90;99.90;;;;;;5059661;28;20354;-54
2023/08/04 05:52:13;;;;;;;;;;;16.90;99.90;;;;;;5071464;28;20271;-54
2023/08/04 05:54:38;;;;;;;4.65;2.05;;;17.00;99.90;;;;;;5072060;28;20392;-54
2023/08/04 05:57:04;;;;;;;6.80;1.88;;;17.00;99.90;;;;;;5074518;28;20048;-53
2023/08/04 05:59:30;;;;;;;8.45;1.98;;;17.00;99.90;;;;;;5075874;28;20032;-51
2023/08/04 06:01:55;;;;;;;10.23;2.42;;;17.10;99.90;;;;;;5071117;28;20473;-54
2023/08/04 06:04:21;;;;;;;4.70;1.65;;;17.10;99.90;;;;;;5070427;28;20020;-53
2023/08/04 06:06:47;;;;;;;5.85;2.00;;;17.10;99.90;;;;;;5075716;28;20035;-54
2023/08/04 06:09:12;;;;;;;5.43;1.90;;;17.10;99.90;;;;;;5069271;28;20104;-53
2023/08/04 06:11:38;;;;;;;5.68;2.08;;;17.00;99.90;;;;;;5060944;28;20032;-54
2023/08/04 06:14:04;;;;;;;6.95;1.70;;;17.10;99.90;;;;;;5075469;28;20034;-53
2023/08/04 06:16:30;;;;;;;5.45;2.78;;;17.10;99.90;;;;;;5075509;28;20091;-54
2023/08/04 06:18:58;;;;;;;3.10;1.58;;;17.20;99.90;;;;;;5070820;28;20099;-55
2023/08/04 06:21:23;;;;;;;;;;;17.20;99.90;;;;;;5076160;28;20090;-54
2023/08/04 06:23:49;;;;;;;11.93;3.53;;;17.20;99.90;;;;;;5075325;28;19908;-51
2023/08/04 06:26:14;;;;;;;13.27;2.78;;;17.20;99.90;;;;;;5067990;28;20029;-55
2023/08/04 06:28:41;;;;;;;10.98;2.58;;;17.10;99.90;;;;;;5043846;28;20063;-52
2023/08/04 06:31:07;;;;;;;7.43;4.07;;;17.10;99.90;;;;;;5053601;28;20067;-54
2023/08/04 06:33:32;;;;;;;12.85;4.38;;;17.10;99.90;;;;;;5055039;28;20025;-55
2023/08/04 06:35:58;;;;;;;13.50;3.10;;;17.20;99.90;;;;;;5055171;28;20448;-53
2023/08/04 06:38:24;;;;;;;4.55;2.10;;;17.30;99.90;;;;;;5055296;28;20025;-53
2023/08/04 06:40:50;;;;;;;4.97;1.73;;;17.40;99.90;;;;;;5055065;28;20028;-55
2023/08/04 06:43:15;;;;;;;3.50;1.60;;;17.40;99.90;;;;;;5055021;28;20474;-55
2023/08/04 06:45:41;;;;;;;4.68;1.73;;;17.50;99.90;;;;;;5054881;28;20036;-54
2023/08/04 06:48:07;;;;;;;9.32;1.80;;;17.50;99.90;;;;;;5063049;28;20021;-55
2023/08/04 06:50:32;;;;;;;4.00;1.48;;;17.60;99.90;;;;;;5071123;28;20032;-40
2023/08/04 06:52:58;;;;;;;3.30;1.90;;;17.60;99.90;;;;;;5070483;28;20031;-45
2023/08/04 06:55:24;;;;;;;5.65;1.85;;;17.60;99.90;;;;;;5075024;28;20025;-40
2023/08/04 06:57:50;;;;;;;4.00;1.42;;;17.70;99.90;;;;;;5070747;28;20080;-43
2023/08/04 07:00:17;;;;;;;5.82;1.10;;;17.60;99.90;;;;;;5071425;28;20115;-46
2023/08/04 07:02:47;;;;;;;3.70;1.95;;;17.60;99.90;;;;;;5062706;28;20130;-40
2023/08/04 07:05:13;;;;;;;5.00;2.10;;;17.70;99.90;;;;;;5043249;28;20025;-42
2023/08/04 07:07:39;;;;;;;1.52;1.42;;;17.70;99.90;;;;;;5054864;28;20165;-45
2023/08/04 07:10:05;;;;;;;3.70;1.45;;;17.70;99.90;;;;;;5050051;28;20088;-43
2023/08/04 07:12:31;;;;;;;3.55;2.33;;;17.70;99.90;;;;;;5054419;28;20069;-40
2023/08/04 07:14:56;;;;;;;2.47;1.40;;;17.70;99.90;;;;;;5054657;28;20516;-40
2023/08/04 07:17:22;;;;;;;5.65;1.52;;;17.70;99.90;;;;;;5054521;28;20100;-53
2023/08/04 07:19:48;;;;;;;4.35;1.52;;;17.70;99.90;;;;;;5053328;28;20054;-55
2023/08/04 07:22:14;;;;;;;5.07;2.17;;;17.70;99.90;;;;;;5054508;28;20047;-55
2023/08/04 07:24:39;;;;;;;1.55;1.15;;;17.60;99.90;;;;;;5052951;28;20497;-54
2023/08/04 07:27:06;;;;;;;6.15;1.30;;;17.50;99.90;;;;;;5054108;28;20029;-54
2023/08/04 07:29:34;;;;;;;3.35;1.45;;;17.50;99.90;;;;;;5054101;28;20037;-54
2023/08/04 07:32:00;;;;;;;8.65;1.45;;;17.40;99.90;;;;;;5054101;28;20036;-54
2023/08/04 07:34:26;;;;;;;2.28;1.20;;;17.50;99.90;;;;;;5054034;28;20025;-52
2023/08/04 07:36:51;;;;;;;6.70;1.48;;;17.40;99.90;;;;;;5067305;28;20029;-53
2023/08/04 07:39:17;;;;;;;5.55;1.95;;;17.30;99.90;;;;;;5064159;28;20149;-55
2023/08/04 07:41:42;;;;;;;4.38;1.45;;;17.10;99.90;;;;;;5070734;28;20044;-56
2023/08/04 07:44:08;;;;;;;4.18;1.35;;;16.80;99.90;;;;;;5074145;28;20110;-53
2023/08/04 07:46:34;;;;;;;4.05;1.23;;;16.70;99.90;;;;;;5066276;28;20038;-54
2023/08/04 07:48:59;;;;;;;5.35;1.38;;;16.50;99.90;;;;;;5055700;28;20025;-55
2023/08/04 07:51:25;;;;;;;5.22;1.38;;;16.40;99.90;;;;;;5046248;28;20116;-54
2023/08/04 07:53:51;;;;;;;2.83;1.20;;;16.30;99.90;;;;;;5053515;28;20064;-54
2023/08/04 07:56:17;;;;;;;10.07;1.42;;;16.20;99.90;;;;;;5052213;28;20502;-51
2023/08/04 07:58:43;;;;;;;3.65;1.55;;;16.10;99.90;;;;;;5065736;28;20199;-54
2023/08/04 08:01:09;;;;;;;4.40;2.47;;;16.00;99.90;;;;;;5053144;28;20044;-54
2023/08/04 08:03:36;;;;;;;4.38;1.40;;;16.00;99.90;;;;;;5056012;28;20016;-50
2023/08/04 08:06:02;;;;;;;1.40;1.17;;;16.10;99.90;;;;;;5040345;28;20075;-53
2023/08/04 08:08:28;;;;;;;1.83;1.55;;;16.10;99.90;;;;;;5053444;28;20111;-54
2023/08/04 08:10:55;;;;;;;4.68;1.70;;;16.20;99.90;;;;;;5053098;28;20385;-53
2023/08/04 08:13:21;;;;;;;2.72;1.80;;;16.30;99.90;;;;;;5052392;28;20025;-50
2023/08/04 08:15:47;;;;;;;5.00;1.98;;;16.40;99.90;;;;;;5053353;28;20037;-54
2023/08/04 08:18:12;;;;;;;4.10;1.50;;;16.40;99.90;;;;;;5053253;28;20039;-56
2023/08/04 08:20:43;;;;;;;3.10;1.58;;;16.50;99.90;;;;;;5051245;28;20032;-55
2023/08/04 08:23:09;;;;;;;6.65;1.90;;;16.50;99.90;;;;;;5032058;28;20117;-54
2023/08/04 08:25:35;;;;;;;14.45;2.55;;;16.50;99.90;;;;;;5032908;28;20052;-55
2023/08/04 08:28:02;;;;;;;5.35;2.08;;;16.30;99.90;;;;;;5040859;28;20043;-55
2023/08/04 08:30:28;;;;;;;7.30;2.10;;;16.10;99.90;;;;;;5063673;28;20386;-53
2023/08/04 08:32:53;;;;;;;6.03;1.58;;;16.10;99.90;;;;;;5033144;28;20033;-55
2023/08/04 08:35:19;;;;;;;9.10;2.65;;;16.00;99.90;;;;;;5033349;28;20288;-55
2023/08/04 08:37:44;;;;;;;12.30;2.50;;;16.00;99.90;;;;;;5037012;28;20026;-55
2023/08/04 08:40:11;;;;;;;5.28;2.03;;;16.10;99.90;;;;;;5040742;28;20470;-54
2023/08/04 08:42:36;;;;;;;6.35;1.92;;;16.20;99.90;;;;;;5052897;28;20025;-56
2023/08/04 08:45:03;;;;;;;6.90;1.92;;;16.30;99.90;;;;;;5052665;28;20036;-56
2023/08/04 08:47:35;;;;;;;2.63;1.80;;;16.40;99.90;;;;;;5051378;28;20104;-55
2023/08/04 08:50:03;;;;;;;6.43;1.98;;;16.50;99.90;;;;;;5060834;28;20043;-56
2023/08/04 08:52:38;;;;;;;7.95;1.85;;;16.60;99.90;;;;;;5068488;28;20119;-54
2023/08/04 08:55:05;;;;;;;7.45;2.95;;;16.60;99.90;;;;;;5064112;28;20029;-57
2023/08/04 08:57:32;;;;;;;12.85;2.40;;;16.60;99.90;;;;;;5066345;28;20057;-56
2023/08/04 09:00:02;;;;;;;4.00;1.88;;;16.70;99.90;;;;;;5041669;28;20025;-56
2023/08/04 09:02:28;;;;;;;6.47;2.00;;;16.80;99.90;;;;;;5051684;28;20029;-56
2023/08/04 09:04:54;;;;;;;5.88;2.20;;;17.00;99.90;;;;;;5040070;28;20121;-56
2023/08/04 09:07:22;;;;;;;10.38;2.13;;;17.40;99.90;;;;;;5032762;28;20029;-56
2023/08/04 09:09:48;;;;;;;5.25;2.25;;;17.90;99.90;;;;;;5041014;28;20059;-56
2023/08/04 09:12:15;;;;;;;6.13;1.63;;;18.20;99.90;;;;;;5052893;28;20110;-56
2023/08/04 09:14:56;;;;;;;4.88;2.20;;;18.40;99.90;;;;;;5052953;28;20079;-45
2023/08/04 09:17:33;;;;;;;4.65;1.77;;;18.70;99.90;;;;;;5052768;28;20531;-47
2023/08/04 09:20:01;;;;;;;5.47;1.75;;;18.90;99.90;;;;;;5051575;28;20052;-46
2023/08/04 09:22:27;;;;;;;2.03;1.85;;;18.80;99.90;;;;;;5052780;28;20123;-47
2023/08/04 09:24:59;;;;;;;5.47;1.30;;;18.90;99.90;;;;;;5052304;28;20374;-45
2023/08/04 09:27:35;;;;;;;3.63;1.40;;;18.90;99.90;;;;;;5052409;28;20059;-47
2023/08/04 09:30:03;;;;;;;6.93;1.42;;;19.00;99.90;;;;;;5052483;28;20037;-47
2023/08/04 09:32:30;;;;;;;10.75;1.38;;;19.00;99.90;;;;;;5055828;28;20033;-48
2023/08/04 09:35:05;;;;;;;7.70;1.80;;;19.30;99.90;;;;;;5057711;28;20029;-49
2023/08/04 09:37:36;;;;;;;5.57;1.50;;;19.40;99.90;;;;;;5074328;28;20090;-45
2023/08/04 09:40:04;;;;;;;3.28;1.00;;;19.60;99.90;;;;;;5075121;28;20024;-52
2023/08/04 09:42:30;;;;;;;4.40;1.25;;;19.50;99.90;;;;;;5073077;28;20024;-50
2023/08/04 09:44:56;;;;;;;3.90;1.42;;;19.10;99.90;;;;;;5069080;28;20021;-44
2023/08/04 09:47:24;;;;;;;6.55;1.40;;;18.80;99.90;;;;;;5076115;28;20037;-44
2023/08/04 09:49:50;;;;;;;7.72;1.48;;;18.40;99.90;;;;;;5067742;28;20024;-49
2023/08/04 09:52:27;;;;;;;4.22;1.25;;;18.10;99.90;;;;;;5076101;28;20031;-44
2023/08/04 09:54:55;;;;;;;8.77;1.73;;;18.00;99.90;;;;;;5069822;28;20029;-45
2023/08/04 09:57:22;;;;;;;7.20;2.13;;;17.90;99.90;;;;;;5071787;28;20560;-47
2023/08/04 09:59:52;;;;;;;6.75;1.65;;;17.70;99.90;;;;;;5071637;28;20035;-47
2023/08/04 10:02:19;;;;;;;3.38;1.35;;;17.70;99.90;;;;;;5075888;28;20481;-43
2023/08/04 10:04:49;;;;;;;11.07;1.08;;;17.70;99.90;;;;;;5067799;28;20056;-50
2023/08/04 10:07:19;;;;;;;4.45;1.10;;;17.70;99.90;;;;;;5075761;28;20082;-47
2023/08/04 10:09:47;;;;;;;10.38;1.15;;;17.70;99.90;;;;;;5068341;28;20021;-46
2023/08/04 10:12:16;;;;;;;2.40;0.60;;;18.00;99.90;;;;;;5055701;28;20029;-45
2023/08/04 10:14:42;;;;;;;1.80;0.82;;;18.20;99.90;;;;;;5053241;28;20049;-44
2023/08/04 10:17:08;;;;;;;2.85;0.90;;;18.60;99.90;;;;;;5044234;28;20103;-50
2023/08/04 10:19:35;;;;;;;4.78;0.80;;;19.10;99.90;;;;;;5055614;28;20063;-55
2023/08/04 10:22:07;;;;;;;6.28;0.80;;;19.70;99.90;;;;;;5055503;28;20025;-48
2023/08/04 10:24:35;;;;;;;3.13;1.42;;;20.20;99.90;;;;;;5055431;28;20037;-46
2023/08/04 10:27:17;;;;;;;4.05;1.00;;;20.40;99.90;;;;;;5054588;28;20119;-46
2023/08/04 10:29:43;;;;;;;2.10;0.82;;;20.50;99.90;;;;;;5055295;28;20029;-43
2023/08/04 10:32:09;;;;;;;0.73;0.73;;;20.40;99.90;;;;;;5055098;28;20086;-51
2023/08/04 10:34:42;;;;;;;3.35;0.95;;;20.40;99.90;;;;;;5055397;28;20137;-45
2023/08/04 10:37:15;;;;;;;1.60;0.68;;;20.20;99.90;;;;;;5055254;28;20390;-45
2023/08/04 10:39:40;;;;;;;1.27;0.60;;;19.90;99.90;;;;;;5055470;28;20397;-49
2023/08/04 10:42:09;;;;;;;0.70;0.70;;;19.70;99.90;;;;;;5054699;28;20035;-47
2023/08/04 10:44:53;;;;;;;5.13;1.00;;;19.50;99.90;;;;;;5054385;28;20039;-45
2023/08/04 10:47:39;;;;;;;2.55;1.13;;;19.30;99.90;;;;;;5055100;28;20480;-45
2023/08/04 10:50:06;;;;;;;2.70;0.70;;;19.10;99.90;;;;;;5055329;28;20052;-47
2023/08/04 10:52:32;;;;;;;1.52;0.70;;;19.30;99.90;;;;;;5055231;28;20393;-44
2023/08/04 10:54:59;;;;;;;4.65;0.90;;;19.30;99.90;;;;;;5054917;28;20025;-47
2023/08/04 10:57:36;;;;;;;3.70;0.77;;;19.20;99.90;;;;;;5054703;28;20041;-44
2023/08/04 11:00:05;;;;;;;0.63;0.55;;;19.10;99.90;;;;;;5053540;28;20024;-44
2023/08/04 11:02:32;;;;;;;5.18;0.60;;;19.00;99.90;;;;;;5053821;28;20394;-45
2023/08/04 11:04:58;;;;;;;3.10;0.77;;;18.80;99.90;;;;;;5053458;28;20119;-47
2023/08/04 11:08:07;;;;;;;1.50;0.40;;;18.70;99.90;;;;;;5054944;28;20053;-44
2023/08/04 11:10:34;;;;;;;0.70;0.70;;;18.90;99.90;;;;;;5054439;28;20036;-45
2023/08/04 11:13:00;;;;;;;0.93;0.77;;;19.20;99.90;;;;;;5054546;28;20033;-42
2023/08/04 11:15:25;;;;;;;3.17;0.85;;;19.50;99.90;;;;;;5054475;28;20025;-45
2023/08/04 11:17:51;;;;;;;2.08;0.57;;;19.50;99.90;;;;;;5053163;28;20032;-40
2023/08/04 11:20:17;;;;;;;2.13;0.88;;;19.20;99.90;;;;;;5054444;28;20033;-47
2023/08/04 11:22:46;;;;;;;3.40;0.60;;;19.00;99.90;;;;;;5053189;28;20025;-46
2023/08/04 11:25:12;;;;;;;6.65;1.17;;;18.90;99.90;;;;;;5054218;28;20037;-46
2023/08/04 11:27:37;;;;;;;2.63;0.70;;;18.80;99.90;;;;;;5054335;28;20466;-47
2023/08/04 11:30:03;;;;;;;0.75;0.52;;;18.80;99.90;;;;;;5054323;28;20473;-43
2023/08/04 11:32:29;;;;;;;1.20;0.47;;;19.10;99.90;;;;;;5054135;28;20036;-45
2023/08/04 11:34:55;;;;;;;6.18;0.77;;;19.30;99.90;;;;;;5052977;28;20032;-41
2023/08/04 11:37:22;;;;;;;3.60;1.02;;;19.70;99.90;;;;;;5054364;28;20473;-46
2023/08/04 11:39:48;;;;;;;4.33;0.60;;;19.60;99.90;;;;;;5054360;28;20078;-42
2023/08/04 11:42:15;;;;;;;1.48;0.70;;;19.50;99.90;;;;;;5052828;28;20263;-45
2023/08/04 11:44:42;;;;;;;4.97;1.88;;;19.40;99.90;;;;;;5041670;28;20032;-46
2023/08/04 11:47:09;;;;;;;1.27;0.95;;;19.30;99.90;;;;;;5054222;28;20039;-40
2023/08/04 11:49:35;;;;;;;1.90;0.73;;;19.30;99.90;;;;;;5041358;28;20033;-43
2023/08/04 11:52:06;;;;;;;4.13;0.60;;;19.30;99.90;;;;;;5039270;28;20405;-46
2023/08/04 11:54:32;;;;;;;2.40;0.50;;;19.20;99.90;;;;;;5052925;28;20033;-44
2023/08/04 11:56:59;;;;;;;0.98;0.90;;;19.10;99.90;;;;;;5053509;28;20508;-42
2023/08/04 11:59:25;;;;;;;1.97;0.60;;;19.10;99.90;;;;;;5053690;28;20021;-45
2023/08/04 12:02:03;;;;;;;3.10;0.63;;;19.10;99.90;;;;;;5041575;28;20414;-42
2023/08/04 12:04:29;;;;;;;0.38;0.38;;;19.00;99.90;;;;;;5049039;28;20091;-41
2023/08/04 12:06:59;;;;;;;3.33;0.80;;;19.20;99.90;;;;;;5048856;28;20037;-44
2023/08/04 12:09:25;;;;;;;1.70;0.63;;;19.50;99.90;;;;;;5041800;28;20047;-42
2023/08/04 12:11:51;;;;;;;0.57;0.57;;;19.50;99.90;;;;;;5047876;28;20041;-48
2023/08/04 12:14:17;;;;;;;1.38;0.75;;;19.70;99.90;;;;;;5034393;28;20029;-41
2023/08/04 12:17:00;;;;;;;1.20;0.50;;;19.80;99.90;;;;;;5043606;28;20036;-46
2023/08/04 12:19:28;;;;;;;0.90;0.55;;;19.90;99.90;;;;;;5041626;28;20056;-42
2023/08/04 12:21:58;;;;;;;3.03;0.73;;;19.70;99.90;;;;;;5047972;28;20036;-42
2023/08/04 12:24:24;;;;;;;2.03;0.85;;;19.50;99.90;;;;;;5042440;28;20025;-47
2023/08/04 12:26:50;;;;;;;2.50;0.90;;;19.40;99.90;;;;;;5044989;28;20036;-44
2023/08/04 12:29:16;;;;;;;1.27;0.82;;;19.40;99.90;;;;;;5047592;28;20034;-44
2023/08/04 12:31:42;;;;;;;1.65;0.70;;;19.40;99.90;;;;;;5039071;28;20040;-48
2023/08/04 12:34:09;;;;;;;0.65;0.65;;;19.40;99.90;;;;;;5042219;28;20028;-43
2023/08/04 12:36:35;;;;;;;4.03;0.70;;;19.50;99.90;;;;;;5053095;28;20021;-49
2023/08/04 12:39:03;;;;;;;2.67;0.70;;;19.70;99.90;;;;;;5051306;28;20477;-42
2023/08/04 12:41:32;;;;;;;1.50;0.98;;;19.70;99.90;;;;;;5052947;28;20033;-47
2023/08/04 12:43:58;;;;;;;6.30;1.40;;;20.00;99.90;;;;;;5052161;28;20033;-39
2023/08/04 12:46:28;;;;;;;2.25;0.80;;;20.40;99.90;;;;;;5053172;28;20040;-46